sensor_id;sensor_type;location;lat;lon;timestamp;temperature;humidity
68746;SHT31;73143;45.456;11.064;2024-01-25T00:02:35;4.64;70.27
68746;SHT31;73143;45.456;11.064;2024-01-25T00:05:12;4.63;70.30
68746;SHT31;73143;45.456;11.064;2024-01-25T00:07:50;4.63;70.31
68746;SHT31;73143;45.456;11.064;2024-01-25T00:10:30;4.63;70.36
68746;SHT31;73143;45.456;11.064;2024-01-25T00:13:07;4.63;70.45
68746;SHT31;73143;45.456;11.064;2024-01-25T00:15:45;4.61;70.54
68746;SHT31;73143;45.456;11.064;2024-01-25T00:18:22;4.62;70.50
68746;SHT31;73143;45.456;11.064;2024-01-25T00:21:00;4.63;70.52
68746;SHT31;73143;45.456;11.064;2024-01-25T00:23:37;4.63;70.50
68746;SHT31;73143;45.456;11.064;2024-01-25T00:26:14;4.63;70.52
68746;SHT31;73143;45.456;11.064;2024-01-25T00:28:52;4.62;70.51
68746;SHT31;73143;45.456;11.064;2024-01-25T00:31:29;4.61;70.53
68746;SHT31;73143;45.456;11.064;2024-01-25T00:34:07;4.62;70.56
68746;SHT31;73143;45.456;11.064;2024-01-25T00:36:47;4.63;70.53
68746;SHT31;73143;45.456;11.064;2024-01-25T00:39:31;4.61;70.59
68746;SHT31;73143;45.456;11.064;2024-01-25T00:42:12;4.60;70.61
68746;SHT31;73143;45.456;11.064;2024-01-25T00:44:53;4.59;70.66
68746;SHT31;73143;45.456;11.064;2024-01-25T00:47:35;4.54;70.58
68746;SHT31;73143;45.456;11.064;2024-01-25T00:50:17;4.50;70.62
68746;SHT31;73143;45.456;11.064;2024-01-25T00:53:02;4.48;70.70
68746;SHT31;73143;45.456;11.064;2024-01-25T00:55:44;4.49;70.63
68746;SHT31;73143;45.456;11.064;2024-01-25T00:58:30;4.48;70.70
68746;SHT31;73143;45.456;11.064;2024-01-25T01:01:12;4.47;70.70
68746;SHT31;73143;45.456;11.064;2024-01-25T01:03:58;4.47;70.69
68746;SHT31;73143;45.456;11.064;2024-01-25T01:06:43;4.43;70.86
68746;SHT31;73143;45.456;11.064;2024-01-25T01:09:25;4.40;71.00
68746;SHT31;73143;45.456;11.064;2024-01-25T01:12:03;4.38;71.00
68746;SHT31;73143;45.456;11.064;2024-01-25T01:14:40;4.37;71.00
68746;SHT31;73143;45.456;11.064;2024-01-25T01:17:18;4.36;71.00
68746;SHT31;73143;45.456;11.064;2024-01-25T01:19:55;4.37;71.03
68746;SHT31;73143;45.456;11.064;2024-01-25T01:22:32;4.34;71.10
68746;SHT31;73143;45.456;11.064;2024-01-25T01:25:10;4.30;71.21
68746;SHT31;73143;45.456;11.064;2024-01-25T01:27:48;4.26;71.29
68746;SHT31;73143;45.456;11.064;2024-01-25T01:30:25;4.26;71.22
68746;SHT31;73143;45.456;11.064;2024-01-25T01:33:07;4.24;71.30
68746;SHT31;73143;45.456;11.064;2024-01-25T01:35:45;4.26;71.30
68746;SHT31;73143;45.456;11.064;2024-01-25T01:38:22;4.28;71.38
68746;SHT31;73143;45.456;11.064;2024-01-25T01:40:59;4.30;71.30
68746;SHT31;73143;45.456;11.064;2024-01-25T01:43:37;4.30;71.21
68746;SHT31;73143;45.456;11.064;2024-01-25T01:46:27;4.31;71.23
68746;SHT31;73143;45.456;11.064;2024-01-25T01:49:10;4.30;71.37
68746;SHT31;73143;45.456;11.064;2024-01-25T01:51:49;4.29;71.28
68746;SHT31;73143;45.456;11.064;2024-01-25T01:54:27;4.28;71.31
68746;SHT31;73143;45.456;11.064;2024-01-25T01:57:05;4.29;71.31
68746;SHT31;73143;45.456;11.064;2024-01-25T01:59:44;4.29;71.37
68746;SHT31;73143;45.456;11.064;2024-01-25T02:02:23;4.28;71.39
68746;SHT31;73143;45.456;11.064;2024-01-25T02:05:01;4.29;71.30
68746;SHT31;73143;45.456;11.064;2024-01-25T02:07:40;4.30;71.30
68746;SHT31;73143;45.456;11.064;2024-01-25T02:10:19;4.30;71.33
68746;SHT31;73143;45.456;11.064;2024-01-25T02:12:56;4.30;71.29
68746;SHT31;73143;45.456;11.064;2024-01-25T02:15:34;4.29;71.30
68746;SHT31;73143;45.456;11.064;2024-01-25T02:18:10;4.29;71.30
68746;SHT31;73143;45.456;11.064;2024-01-25T02:20:48;4.31;71.30
68746;SHT31;73143;45.456;11.064;2024-01-25T02:23:25;4.31;71.27
68746;SHT31;73143;45.456;11.064;2024-01-25T02:26:01;4.30;71.26
68746;SHT31;73143;45.456;11.064;2024-01-25T02:28:39;4.30;71.26
68746;SHT31;73143;45.456;11.064;2024-01-25T02:31:15;4.31;71.21
68746;SHT31;73143;45.456;11.064;2024-01-25T02:33:52;4.31;71.23
68746;SHT31;73143;45.456;11.064;2024-01-25T02:36:29;4.29;71.26
68746;SHT31;73143;45.456;11.064;2024-01-25T02:39:06;4.21;71.21
68746;SHT31;73143;45.456;11.064;2024-01-25T02:41:43;4.07;71.62
68746;SHT31;73143;45.456;11.064;2024-01-25T02:44:20;4.05;71.91
68746;SHT31;73143;45.456;11.064;2024-01-25T02:46:58;4.05;71.86
68746;SHT31;73143;45.456;11.064;2024-01-25T02:49:34;4.03;71.84
68746;SHT31;73143;45.456;11.064;2024-01-25T02:52:12;4.03;71.89
68746;SHT31;73143;45.456;11.064;2024-01-25T02:54:49;4.03;71.99
68746;SHT31;73143;45.456;11.064;2024-01-25T02:57:27;4.05;72.00
68746;SHT31;73143;45.456;11.064;2024-01-25T03:00:07;4.06;72.00
68746;SHT31;73143;45.456;11.064;2024-01-25T03:02:48;4.07;72.00
68746;SHT31;73143;45.456;11.064;2024-01-25T03:05:25;4.09;71.99
68746;SHT31;73143;45.456;11.064;2024-01-25T03:08:05;4.09;71.99
68746;SHT31;73143;45.456;11.064;2024-01-25T03:10:43;4.11;71.95
68746;SHT31;73143;45.456;11.064;2024-01-25T03:13:21;4.12;71.94
68746;SHT31;73143;45.456;11.064;2024-01-25T03:15:58;4.11;72.04
68746;SHT31;73143;45.456;11.064;2024-01-25T03:18:36;4.11;72.11
68746;SHT31;73143;45.456;11.064;2024-01-25T03:21:13;4.12;72.10
68746;SHT31;73143;45.456;11.064;2024-01-25T03:23:50;4.11;72.04
68746;SHT31;73143;45.456;11.064;2024-01-25T03:26:28;4.11;72.00
68746;SHT31;73143;45.456;11.064;2024-01-25T03:29:05;4.12;72.00
68746;SHT31;73143;45.456;11.064;2024-01-25T03:31:42;4.12;72.05
68746;SHT31;73143;45.456;11.064;2024-01-25T03:34:20;4.11;72.24
68746;SHT31;73143;45.456;11.064;2024-01-25T03:36:57;4.10;72.30
68746;SHT31;73143;45.456;11.064;2024-01-25T03:39:34;4.11;72.26
68746;SHT31;73143;45.456;11.064;2024-01-25T03:42:12;4.12;72.26
68746;SHT31;73143;45.456;11.064;2024-01-25T03:44:48;4.14;72.18
68746;SHT31;73143;45.456;11.064;2024-01-25T03:47:26;4.12;72.20
68746;SHT31;73143;45.456;11.064;2024-01-25T03:50:07;4.14;72.17
68746;SHT31;73143;45.456;11.064;2024-01-25T03:52:46;4.09;72.21
68746;SHT31;73143;45.456;11.064;2024-01-25T03:55:22;4.08;72.29
68746;SHT31;73143;45.456;11.064;2024-01-25T03:58:00;4.07;72.30
68746;SHT31;73143;45.456;11.064;2024-01-25T04:00:37;4.08;72.28
68746;SHT31;73143;45.456;11.064;2024-01-25T04:03:16;4.08;72.23
68746;SHT31;73143;45.456;11.064;2024-01-25T04:05:53;4.07;72.18
68746;SHT31;73143;45.456;11.064;2024-01-25T04:08:30;4.06;72.21
68746;SHT31;73143;45.456;11.064;2024-01-25T04:11:08;4.05;72.34
68746;SHT31;73143;45.456;11.064;2024-01-25T04:13:44;4.06;72.34
68746;SHT31;73143;45.456;11.064;2024-01-25T04:16:22;4.03;72.33
68746;SHT31;73143;45.456;11.064;2024-01-25T04:19:00;4.03;72.38
68746;SHT31;73143;45.456;11.064;2024-01-25T04:21:38;4.02;72.39
68746;SHT31;73143;45.456;11.064;2024-01-25T04:24:16;4.04;72.39
68746;SHT31;73143;45.456;11.064;2024-01-25T04:26:53;4.01;72.40
68746;SHT31;73143;45.456;11.064;2024-01-25T04:29:30;4.01;72.47
68746;SHT31;73143;45.456;11.064;2024-01-25T04:32:09;4.01;72.40
68746;SHT31;73143;45.456;11.064;2024-01-25T04:34:51;4.01;72.35
68746;SHT31;73143;45.456;11.064;2024-01-25T04:37:28;3.98;72.49
68746;SHT31;73143;45.456;11.064;2024-01-25T04:40:09;3.98;72.78
68746;SHT31;73143;45.456;11.064;2024-01-25T04:42:47;3.95;72.86
68746;SHT31;73143;45.456;11.064;2024-01-25T04:45:25;3.94;72.92
68746;SHT31;73143;45.456;11.064;2024-01-25T04:48:03;3.94;73.00
68746;SHT31;73143;45.456;11.064;2024-01-25T04:50:42;3.96;72.90
68746;SHT31;73143;45.456;11.064;2024-01-25T04:53:22;3.97;72.85
68746;SHT31;73143;45.456;11.064;2024-01-25T04:55:59;3.97;72.70
68746;SHT31;73143;45.456;11.064;2024-01-25T04:58:39;3.95;72.75
68746;SHT31;73143;45.456;11.064;2024-01-25T05:01:15;3.93;72.78
68746;SHT31;73143;45.456;11.064;2024-01-25T05:03:52;3.90;72.93
68746;SHT31;73143;45.456;11.064;2024-01-25T05:06:29;3.89;72.84
68746;SHT31;73143;45.456;11.064;2024-01-25T05:09:07;3.88;72.97
68746;SHT31;73143;45.456;11.064;2024-01-25T05:11:44;3.88;72.77
68746;SHT31;73143;45.456;11.064;2024-01-25T05:14:21;3.81;72.50
68746;SHT31;73143;45.456;11.064;2024-01-25T05:16:57;3.74;72.57
68746;SHT31;73143;45.456;11.064;2024-01-25T05:19:36;3.64;72.69
68746;SHT31;73143;45.456;11.064;2024-01-25T05:22:13;3.59;73.00
68746;SHT31;73143;45.456;11.064;2024-01-25T05:24:51;3.58;73.11
68746;SHT31;73143;45.456;11.064;2024-01-25T05:27:28;3.56;73.28
68746;SHT31;73143;45.456;11.064;2024-01-25T05:30:08;3.56;73.36
68746;SHT31;73143;45.456;11.064;2024-01-25T05:32:49;3.54;73.44
68746;SHT31;73143;45.456;11.064;2024-01-25T05:35:26;3.54;73.59
68746;SHT31;73143;45.456;11.064;2024-01-25T05:38:04;3.53;73.65
68746;SHT31;73143;45.456;11.064;2024-01-25T05:40:42;3.53;73.69
68746;SHT31;73143;45.456;11.064;2024-01-25T05:43:21;3.52;73.74
68746;SHT31;73143;45.456;11.064;2024-01-25T05:45:59;3.51;73.67
68746;SHT31;73143;45.456;11.064;2024-01-25T05:48:36;3.50;73.69
68746;SHT31;73143;45.456;11.064;2024-01-25T05:51:13;3.51;73.81
68746;SHT31;73143;45.456;11.064;2024-01-25T05:53:50;3.54;73.74
68746;SHT31;73143;45.456;11.064;2024-01-25T05:56:28;3.56;73.72
68746;SHT31;73143;45.456;11.064;2024-01-25T05:59:06;3.54;73.69
68746;SHT31;73143;45.456;11.064;2024-01-25T06:01:43;3.53;73.77
68746;SHT31;73143;45.456;11.064;2024-01-25T06:04:21;3.54;73.72
68746;SHT31;73143;45.456;11.064;2024-01-25T06:06:58;3.53;73.87
68746;SHT31;73143;45.456;11.064;2024-01-25T06:09:35;3.53;73.94
68746;SHT31;73143;45.456;11.064;2024-01-25T06:12:13;3.54;74.05
68746;SHT31;73143;45.456;11.064;2024-01-25T06:14:50;3.56;74.14
68746;SHT31;73143;45.456;11.064;2024-01-25T06:17:27;3.57;74.16
68746;SHT31;73143;45.456;11.064;2024-01-25T06:20:05;3.57;74.13
68746;SHT31;73143;45.456;11.064;2024-01-25T06:22:45;3.61;74.19
68746;SHT31;73143;45.456;11.064;2024-01-25T06:25:22;3.61;74.21
68746;SHT31;73143;45.456;11.064;2024-01-25T06:28:00;3.61;74.23
68746;SHT31;73143;45.456;11.064;2024-01-25T06:30:38;3.63;74.06
68746;SHT31;73143;45.456;11.064;2024-01-25T06:33:18;3.64;73.97
68746;SHT31;73143;45.456;11.064;2024-01-25T06:35:56;3.62;73.95
68746;SHT31;73143;45.456;11.064;2024-01-25T06:38:33;3.58;73.99
68746;SHT31;73143;45.456;11.064;2024-01-25T06:41:10;3.57;74.05
68746;SHT31;73143;45.456;11.064;2024-01-25T06:43:48;3.56;74.00
68746;SHT31;73143;45.456;11.064;2024-01-25T06:46:26;3.54;74.00
68746;SHT31;73143;45.456;11.064;2024-01-25T06:49:04;3.55;73.97
68746;SHT31;73143;45.456;11.064;2024-01-25T06:51:41;3.56;73.96
68746;SHT31;73143;45.456;11.064;2024-01-25T06:54:18;3.55;74.18
68746;SHT31;73143;45.456;11.064;2024-01-25T06:56:56;3.56;74.37
68746;SHT31;73143;45.456;11.064;2024-01-25T06:59:34;3.56;74.41
68746;SHT31;73143;45.456;11.064;2024-01-25T07:02:11;3.54;74.49
68746;SHT31;73143;45.456;11.064;2024-01-25T07:04:48;3.53;74.60
68746;SHT31;73143;45.456;11.064;2024-01-25T07:07:25;3.54;74.57
68746;SHT31;73143;45.456;11.064;2024-01-25T07:10:04;3.54;74.50
68746;SHT31;73143;45.456;11.064;2024-01-25T07:12:44;3.56;74.55
68746;SHT31;73143;45.456;11.064;2024-01-25T07:15:23;3.58;74.50
68746;SHT31;73143;45.456;11.064;2024-01-25T07:18:00;3.59;74.50
68746;SHT31;73143;45.456;11.064;2024-01-25T07:20:39;3.63;74.55
68746;SHT31;73143;45.456;11.064;2024-01-25T07:23:16;3.69;74.44
68746;SHT31;73143;45.456;11.064;2024-01-25T07:25:55;3.74;74.38
68746;SHT31;73143;45.456;11.064;2024-01-25T07:28:33;3.77;74.39
68746;SHT31;73143;45.456;11.064;2024-01-25T07:31:10;3.81;74.34
68746;SHT31;73143;45.456;11.064;2024-01-25T07:33:48;3.85;74.29
68746;SHT31;73143;45.456;11.064;2024-01-25T07:36:25;3.90;74.27
68746;SHT31;73143;45.456;11.064;2024-01-25T07:39:03;3.96;74.30
68746;SHT31;73143;45.456;11.064;2024-01-25T07:41:41;4.01;74.34
68746;SHT31;73143;45.456;11.064;2024-01-25T07:44:18;4.06;74.26
68746;SHT31;73143;45.456;11.064;2024-01-25T07:46:55;4.14;74.10
68746;SHT31;73143;45.456;11.064;2024-01-25T07:49:33;4.22;74.06
68746;SHT31;73143;45.456;11.064;2024-01-25T07:52:11;4.28;73.96
68746;SHT31;73143;45.456;11.064;2024-01-25T07:54:51;4.36;73.83
68746;SHT31;73143;45.456;11.064;2024-01-25T07:57:30;4.45;73.98
68746;SHT31;73143;45.456;11.064;2024-01-25T08:00:09;4.43;73.37
68746;SHT31;73143;45.456;11.064;2024-01-25T08:02:53;4.32;73.50
68746;SHT31;73143;45.456;11.064;2024-01-25T08:05:31;4.32;73.73
68746;SHT31;73143;45.456;11.064;2024-01-25T08:08:18;4.37;73.76
68746;SHT31;73143;45.456;11.064;2024-01-25T08:10:55;4.43;73.56
68746;SHT31;73143;45.456;11.064;2024-01-25T08:13:33;4.50;73.38
68746;SHT31;73143;45.456;11.064;2024-01-25T08:16:10;4.58;73.37
68746;SHT31;73143;45.456;11.064;2024-01-25T08:18:49;4.64;73.33
68746;SHT31;73143;45.456;11.064;2024-01-25T08:21:25;4.69;73.52
68746;SHT31;73143;45.456;11.064;2024-01-25T08:24:06;4.78;73.51
68746;SHT31;73143;45.456;11.064;2024-01-25T08:26:45;4.89;73.65
68746;SHT31;73143;45.456;11.064;2024-01-25T08:29:22;4.99;73.34
68746;SHT31;73143;45.456;11.064;2024-01-25T08:31:59;5.10;73.20
68746;SHT31;73143;45.456;11.064;2024-01-25T08:34:38;5.21;73.26
68746;SHT31;73143;45.456;11.064;2024-01-25T08:37:16;5.34;73.45
68746;SHT31;73143;45.456;11.064;2024-01-25T08:39:53;5.44;73.57
68746;SHT31;73143;45.456;11.064;2024-01-25T08:42:31;5.54;73.36
68746;SHT31;73143;45.456;11.064;2024-01-25T08:45:10;5.65;73.44
68746;SHT31;73143;45.456;11.064;2024-01-25T08:47:47;5.77;73.03
68746;SHT31;73143;45.456;11.064;2024-01-25T08:50:25;5.89;72.51
68746;SHT31;73143;45.456;11.064;2024-01-25T08:53:02;5.99;72.13
68746;SHT31;73143;45.456;11.064;2024-01-25T08:55:40;6.05;72.25
68746;SHT31;73143;45.456;11.064;2024-01-25T08:58:17;6.14;72.45
68746;SHT31;73143;45.456;11.064;2024-01-25T09:00:54;6.24;72.92
68746;SHT31;73143;45.456;11.064;2024-01-25T09:03:33;6.30;72.69
68746;SHT31;73143;45.456;11.064;2024-01-25T09:06:11;6.30;72.24
68746;SHT31;73143;45.456;11.064;2024-01-25T09:08:48;6.32;72.05
68746;SHT31;73143;45.456;11.064;2024-01-25T09:11:24;6.39;71.72
68746;SHT31;73143;45.456;11.064;2024-01-25T09:14:01;6.48;71.77
68746;SHT31;73143;45.456;11.064;2024-01-25T09:16:38;6.57;71.54
68746;SHT31;73143;45.456;11.064;2024-01-25T09:19:15;6.66;71.42
68746;SHT31;73143;45.456;11.064;2024-01-25T09:21:53;6.74;71.35
68746;SHT31;73143;45.456;11.064;2024-01-25T09:24:33;6.82;71.04
68746;SHT31;73143;45.456;11.064;2024-01-25T09:27:09;6.94;70.96
68746;SHT31;73143;45.456;11.064;2024-01-25T09:29:47;7.04;70.66
68746;SHT31;73143;45.456;11.064;2024-01-25T09:32:24;7.14;70.24
68746;SHT31;73143;45.456;11.064;2024-01-25T09:35:02;7.24;69.95
68746;SHT31;73143;45.456;11.064;2024-01-25T09:37:41;7.36;69.25
68746;SHT31;73143;45.456;11.064;2024-01-25T09:40:21;7.49;68.81
68746;SHT31;73143;45.456;11.064;2024-01-25T09:42:58;7.61;68.38
68746;SHT31;73143;45.456;11.064;2024-01-25T09:45:37;7.72;68.11
68746;SHT31;73143;45.456;11.064;2024-01-25T09:48:16;7.84;67.89
68746;SHT31;73143;45.456;11.064;2024-01-25T09:50:54;7.94;67.81
68746;SHT31;73143;45.456;11.064;2024-01-25T09:53:35;8.04;67.27
68746;SHT31;73143;45.456;11.064;2024-01-25T09:56:14;8.14;66.92
68746;SHT31;73143;45.456;11.064;2024-01-25T09:58:54;8.24;66.74
68746;SHT31;73143;45.456;11.064;2024-01-25T10:01:32;8.36;66.46
68746;SHT31;73143;45.456;11.064;2024-01-25T10:04:10;8.48;66.09
68746;SHT31;73143;45.456;11.064;2024-01-25T10:06:48;8.60;66.01
68746;SHT31;73143;45.456;11.064;2024-01-25T10:09:31;8.72;66.04
68746;SHT31;73143;45.456;11.064;2024-01-25T10:12:14;8.81;65.82
68746;SHT31;73143;45.456;11.064;2024-01-25T10:14:52;8.90;65.48
68746;SHT31;73143;45.456;11.064;2024-01-25T10:17:30;9.03;65.04
68746;SHT31;73143;45.456;11.064;2024-01-25T10:20:27;9.15;65.01
68746;SHT31;73143;45.456;11.064;2024-01-25T10:23:09;9.24;64.90
68746;SHT31;73143;45.456;11.064;2024-01-25T10:25:46;9.34;64.69
68746;SHT31;73143;45.456;11.064;2024-01-25T10:28:23;9.44;64.46
68746;SHT31;73143;45.456;11.064;2024-01-25T10:31:06;9.53;64.06
68746;SHT31;73143;45.456;11.064;2024-01-25T10:33:47;9.63;63.81
68746;SHT31;73143;45.456;11.064;2024-01-25T10:36:25;9.71;63.49
68746;SHT31;73143;45.456;11.064;2024-01-25T10:39:04;9.78;63.10
68746;SHT31;73143;45.456;11.064;2024-01-25T10:41:45;9.86;63.15
68746;SHT31;73143;45.456;11.064;2024-01-25T10:44:21;9.94;62.97
68746;SHT31;73143;45.456;11.064;2024-01-25T10:46:59;10.01;62.90
68746;SHT31;73143;45.456;11.064;2024-01-25T10:49:37;10.07;62.27
68746;SHT31;73143;45.456;11.064;2024-01-25T10:52:18;10.13;61.90
68746;SHT31;73143;45.456;11.064;2024-01-25T10:54:57;10.20;61.52
68746;SHT31;73143;45.456;11.064;2024-01-25T10:57:39;10.28;61.33
68746;SHT31;73143;45.456;11.064;2024-01-25T11:00:19;10.36;61.18
68746;SHT31;73143;45.456;11.064;2024-01-25T11:02:58;10.43;60.93
68746;SHT31;73143;45.456;11.064;2024-01-25T11:05:39;10.49;60.59
68746;SHT31;73143;45.456;11.064;2024-01-25T11:08:19;10.55;60.30
68746;SHT31;73143;45.456;11.064;2024-01-25T11:10:58;10.60;59.77
68746;SHT31;73143;45.456;11.064;2024-01-25T11:13:40;10.64;59.68
68746;SHT31;73143;45.456;11.064;2024-01-25T11:16:27;10.70;59.72
68746;SHT31;73143;45.456;11.064;2024-01-25T11:19:05;10.76;59.80
68746;SHT31;73143;45.456;11.064;2024-01-25T11:21:47;10.82;59.38
68746;SHT31;73143;45.456;11.064;2024-01-25T11:24:24;10.86;59.08
68746;SHT31;73143;45.456;11.064;2024-01-25T11:27:09;10.91;58.82
68746;SHT31;73143;45.456;11.064;2024-01-25T11:29:46;10.96;58.94
68746;SHT31;73143;45.456;11.064;2024-01-25T11:32:24;11.02;58.94
68746;SHT31;73143;45.456;11.064;2024-01-25T11:35:01;11.08;58.37
68746;SHT31;73143;45.456;11.064;2024-01-25T11:37:45;11.11;58.27
68746;SHT31;73143;45.456;11.064;2024-01-25T11:40:23;11.14;58.24
68746;SHT31;73143;45.456;11.064;2024-01-25T11:43:06;11.22;58.14
68746;SHT31;73143;45.456;11.064;2024-01-25T11:45:43;11.27;57.89
68746;SHT31;73143;45.456;11.064;2024-01-25T11:48:21;11.30;57.73
68746;SHT31;73143;45.456;11.064;2024-01-25T11:51:02;11.35;57.95
68746;SHT31;73143;45.456;11.064;2024-01-25T11:53:39;11.40;58.00
68746;SHT31;73143;45.456;11.064;2024-01-25T11:56:17;11.46;57.91
68746;SHT31;73143;45.456;11.064;2024-01-25T11:59:00;11.49;57.93
68746;SHT31;73143;45.456;11.064;2024-01-25T12:01:37;11.53;57.74
68746;SHT31;73143;45.456;11.064;2024-01-25T12:04:14;11.57;57.68
68746;SHT31;73143;45.456;11.064;2024-01-25T12:06:52;11.61;57.46
68746;SHT31;73143;45.456;11.064;2024-01-25T12:09:30;11.63;57.60
68746;SHT31;73143;45.456;11.064;2024-01-25T12:12:10;11.65;57.45
68746;SHT31;73143;45.456;11.064;2024-01-25T12:14:47;11.69;57.18
68746;SHT31;73143;45.456;11.064;2024-01-25T12:17:29;11.74;57.22
68746;SHT31;73143;45.456;11.064;2024-01-25T12:20:09;11.78;57.06
68746;SHT31;73143;45.456;11.064;2024-01-25T12:22:50;11.81;56.94
68746;SHT31;73143;45.456;11.064;2024-01-25T12:25:29;11.84;56.99
68746;SHT31;73143;45.456;11.064;2024-01-25T12:28:11;11.87;56.99
68746;SHT31;73143;45.456;11.064;2024-01-25T12:30:47;11.90;56.80
68746;SHT31;73143;45.456;11.064;2024-01-25T12:33:27;11.89;56.89
68746;SHT31;73143;45.456;11.064;2024-01-25T12:36:07;11.90;56.72
68746;SHT31;73143;45.456;11.064;2024-01-25T12:38:45;11.91;56.84
68746;SHT31;73143;45.456;11.064;2024-01-25T12:41:23;11.92;56.92
68746;SHT31;73143;45.456;11.064;2024-01-25T12:44:01;11.94;56.95
68746;SHT31;73143;45.456;11.064;2024-01-25T12:46:39;11.99;56.73
68746;SHT31;73143;45.456;11.064;2024-01-25T12:49:16;12.04;56.56
68746;SHT31;73143;45.456;11.064;2024-01-25T12:51:56;12.08;56.77
68746;SHT31;73143;45.456;11.064;2024-01-25T12:54:33;12.13;56.57
68746;SHT31;73143;45.456;11.064;2024-01-25T12:57:11;12.16;56.66
68746;SHT31;73143;45.456;11.064;2024-01-25T12:59:49;12.21;56.33
68746;SHT31;73143;45.456;11.064;2024-01-25T13:02:28;12.27;56.42
68746;SHT31;73143;45.456;11.064;2024-01-25T13:05:06;12.32;56.51
68746;SHT31;73143;45.456;11.064;2024-01-25T13:07:45;12.37;56.59
68746;SHT31;73143;45.456;11.064;2024-01-25T13:10:23;12.40;56.66
68746;SHT31;73143;45.456;11.064;2024-01-25T13:13:01;12.43;56.80
68746;SHT31;73143;45.456;11.064;2024-01-25T13:15:39;12.47;56.95
68746;SHT31;73143;45.456;11.064;2024-01-25T13:18:16;12.49;56.98
68746;SHT31;73143;45.456;11.064;2024-01-25T13:20:53;12.51;57.07
68746;SHT31;73143;45.456;11.064;2024-01-25T13:23:31;12.52;57.25
68746;SHT31;73143;45.456;11.064;2024-01-25T13:26:08;12.52;57.16
68746;SHT31;73143;45.456;11.064;2024-01-25T13:28:45;12.52;57.20
68746;SHT31;73143;45.456;11.064;2024-01-25T13:31:22;12.54;57.12
68746;SHT31;73143;45.456;11.064;2024-01-25T13:33:59;12.54;57.16
68746;SHT31;73143;45.456;11.064;2024-01-25T13:36:37;12.56;57.20
68746;SHT31;73143;45.456;11.064;2024-01-25T13:39:14;12.57;57.18
68746;SHT31;73143;45.456;11.064;2024-01-25T13:41:51;12.58;57.41
68746;SHT31;73143;45.456;11.064;2024-01-25T13:44:27;12.58;57.40
68746;SHT31;73143;45.456;11.064;2024-01-25T13:47:07;12.58;57.46
68746;SHT31;73143;45.456;11.064;2024-01-25T13:49:45;12.59;57.60
68746;SHT31;73143;45.456;11.064;2024-01-25T13:52:23;12.60;57.43
68746;SHT31;73143;45.456;11.064;2024-01-25T13:55:00;12.59;57.65
68746;SHT31;73143;45.456;11.064;2024-01-25T13:57:41;12.61;57.73
68746;SHT31;73143;45.456;11.064;2024-01-25T14:00:19;12.61;57.81
68746;SHT31;73143;45.456;11.064;2024-01-25T14:02:56;12.62;57.84
68746;SHT31;73143;45.456;11.064;2024-01-25T14:05:38;12.61;57.75
68746;SHT31;73143;45.456;11.064;2024-01-25T14:08:15;12.61;57.96
68746;SHT31;73143;45.456;11.064;2024-01-25T14:10:52;12.61;58.12
68746;SHT31;73143;45.456;11.064;2024-01-25T14:13:30;12.59;58.45
68746;SHT31;73143;45.456;11.064;2024-01-25T14:16:07;12.59;58.64
68746;SHT31;73143;45.456;11.064;2024-01-25T14:18:47;12.57;58.76
68746;SHT31;73143;45.456;11.064;2024-01-25T14:21:24;12.57;58.80
68746;SHT31;73143;45.456;11.064;2024-01-25T14:24:00;12.55;58.97
68746;SHT31;73143;45.456;11.064;2024-01-25T14:26:38;12.54;59.19
68746;SHT31;73143;45.456;11.064;2024-01-25T14:29:15;12.53;59.30
68746;SHT31;73143;45.456;11.064;2024-01-25T14:31:52;12.50;59.47
68746;SHT31;73143;45.456;11.064;2024-01-25T14:34:30;12.46;59.52
68746;SHT31;73143;45.456;11.064;2024-01-25T14:37:08;12.42;59.62
68746;SHT31;73143;45.456;11.064;2024-01-25T14:39:45;12.39;59.75
68746;SHT31;73143;45.456;11.064;2024-01-25T14:42:46;12.36;59.93
68746;SHT31;73143;45.456;11.064;2024-01-25T14:45:23;12.33;60.09
68746;SHT31;73143;45.456;11.064;2024-01-25T14:48:04;12.32;60.21
68746;SHT31;73143;45.456;11.064;2024-01-25T14:50:41;12.28;60.23
68746;SHT31;73143;45.456;11.064;2024-01-25T14:53:18;12.25;60.36
68746;SHT31;73143;45.456;11.064;2024-01-25T14:55:55;12.21;60.51
68746;SHT31;73143;45.456;11.064;2024-01-25T14:58:32;12.18;60.60
68746;SHT31;73143;45.456;11.064;2024-01-25T15:01:11;12.14;60.64
68746;SHT31;73143;45.456;11.064;2024-01-25T15:03:57;12.10;60.73
68746;SHT31;73143;45.456;11.064;2024-01-25T15:06:34;12.07;60.75
68746;SHT31;73143;45.456;11.064;2024-01-25T15:09:15;12.03;60.86
68746;SHT31;73143;45.456;11.064;2024-01-25T15:11:51;12.00;60.90
68746;SHT31;73143;45.456;11.064;2024-01-25T15:14:29;11.98;61.04
68746;SHT31;73143;45.456;11.064;2024-01-25T15:17:06;11.94;61.13
68746;SHT31;73143;45.456;11.064;2024-01-25T15:19:43;11.91;61.21
68746;SHT31;73143;45.456;11.064;2024-01-25T15:22:20;11.87;61.43
68746;SHT31;73143;45.456;11.064;2024-01-25T15:24:57;11.83;61.63
68746;SHT31;73143;45.456;11.064;2024-01-25T15:27:35;11.79;61.71
68746;SHT31;73143;45.456;11.064;2024-01-25T15:30:14;11.73;61.84
68746;SHT31;73143;45.456;11.064;2024-01-25T15:32:54;11.69;61.97
68746;SHT31;73143;45.456;11.064;2024-01-25T15:35:34;11.66;62.07
68746;SHT31;73143;45.456;11.064;2024-01-25T15:38:12;11.61;62.17
68746;SHT31;73143;45.456;11.064;2024-01-25T15:40:49;11.57;62.34
68746;SHT31;73143;45.456;11.064;2024-01-25T15:43:25;11.53;62.51
68746;SHT31;73143;45.456;11.064;2024-01-25T15:46:03;11.48;62.75
68746;SHT31;73143;45.456;11.064;2024-01-25T15:48:45;11.43;63.02
68746;SHT31;73143;45.456;11.064;2024-01-25T15:51:24;11.38;63.25
68746;SHT31;73143;45.456;11.064;2024-01-25T15:54:25;11.32;63.67
68746;SHT31;73143;45.456;11.064;2024-01-25T15:57:10;11.26;63.80
68746;SHT31;73143;45.456;11.064;2024-01-25T16:00:13;11.21;63.94
68746;SHT31;73143;45.456;11.064;2024-01-25T16:02:58;11.16;64.06
68746;SHT31;73143;45.456;11.064;2024-01-25T16:05:55;11.10;64.33
68746;SHT31;73143;45.456;11.064;2024-01-25T16:08:35;11.06;64.55
68746;SHT31;73143;45.456;11.064;2024-01-25T16:11:19;10.98;64.60
68746;SHT31;73143;45.456;11.064;2024-01-25T16:13:57;10.90;64.76
68746;SHT31;73143;45.456;11.064;2024-01-25T16:16:43;10.80;64.90
68746;SHT31;73143;45.456;11.064;2024-01-25T16:19:29;10.70;64.78
68746;SHT31;73143;45.456;11.064;2024-01-25T16:22:14;10.57;65.12
68746;SHT31;73143;45.456;11.064;2024-01-25T16:24:54;10.47;65.22
68746;SHT31;73143;45.456;11.064;2024-01-25T16:27:31;10.37;65.34
68746;SHT31;73143;45.456;11.064;2024-01-25T16:30:24;10.31;65.52
68746;SHT31;73143;45.456;11.064;2024-01-25T16:33:01;10.19;65.60
68746;SHT31;73143;45.456;11.064;2024-01-25T16:35:46;10.05;65.64
68746;SHT31;73143;45.456;11.064;2024-01-25T16:38:29;9.92;65.74